Time;durP1;ratioP1;P1;durP2;ratioP2;P2;SDS_P1;SDS_P2;PMS_P1;PMS_P2;Temp;Humidity;BMP_temperature;BMP_pressure;BME280_temperature;BME280_humidity;BME280_pressure;Samples;Min_cycle;Max_cycle;Signal;HPM_P1;HPM_P2
2023/03/01 00:08:07;;;;;;;8.82;4.40;;;-2.20;99.90;;;;;;20907991;28;20036;-66
2023/03/01 00:18:09;;;;;;;7.22;3.97;;;-0.80;99.90;;;;;;20906243;28;20049;-66
2023/03/01 00:28:10;;;;;;;7.47;4.00;;;-0.30;99.90;;;;;;20903575;28;20041;-60
2023/03/01 00:38:12;;;;;;;6.82;3.33;;;-0.10;99.90;;;;;;20904788;28;20040;-66
2023/03/01 00:48:13;;;;;;;7.55;4.03;;;0.30;99.90;;;;;;20902811;28;20041;-58
2023/03/01 00:58:15;;;;;;;8.18;4.10;;;0.50;99.90;;;;;;20903675;28;20033;-66
2023/03/01 01:08:16;;;;;;;7.78;4.32;;;0.70;99.90;;;;;;20902439;28;20449;-59
2023/03/01 01:18:18;;;;;;;6.85;3.63;;;0.90;99.90;;;;;;20902890;28;20048;-66
2023/03/01 01:28:20;;;;;;;5.53;3.30;;;0.90;99.90;;;;;;20902275;28;20066;-65
2023/03/01 01:38:21;;;;;;;7.13;3.22;;;0.90;99.90;;;;;;20901570;28;20037;-66
2023/03/01 01:48:40;;;;;;;5.18;3.00;;;1.00;99.90;;;;;;20915843;28;20033;-58
2023/03/01 01:58:43;;;;;;;4.75;2.78;;;0.90;99.90;;;;;;20916328;28;20029;-67
2023/03/01 02:08:46;;;;;;;6.13;2.70;;;0.90;99.90;;;;;;20916081;28;20033;-66
2023/03/01 02:18:50;;;;;;;4.40;2.53;;;0.70;99.90;;;;;;20915555;28;20079;-66
2023/03/01 02:28:51;;;;;;;7.30;2.78;;;0.50;99.90;;;;;;20896509;28;20087;-66
2023/03/01 02:38:57;;;;;;;5.38;2.30;;;0.50;99.90;;;;;;20912510;28;20045;-59
2023/03/01 02:48:59;;;;;;;5.28;2.60;;;0.50;99.90;;;;;;20913027;28;20037;-66
2023/03/01 02:59:03;;;;;;;4.22;2.53;;;0.50;99.90;;;;;;20911920;28;20090;-67
2023/03/01 03:09:05;;;;;;;4.35;2.50;;;0.60;99.90;;;;;;20909870;28;20072;-67
2023/03/01 03:19:07;;;;;;;3.83;2.05;;;0.60;99.90;;;;;;20909552;28;20041;-67
2023/03/01 03:29:09;;;;;;;3.30;2.17;;;0.60;99.90;;;;;;20909932;28;20033;-67
2023/03/01 03:39:10;;;;;;;4.30;2.30;;;0.70;99.90;;;;;;20909386;28;20029;-66
2023/03/01 03:49:12;;;;;;;7.30;2.63;;;0.60;99.90;;;;;;20909478;28;20033;-67
2023/03/01 03:59:14;;;;;;;5.80;2.72;;;0.50;99.90;;;;;;20907320;28;20059;-59
2023/03/01 04:09:15;;;;;;;4.07;2.22;;;0.50;99.90;;;;;;20907197;28;20483;-58
2023/03/01 04:19:17;;;;;;;5.47;2.70;;;0.50;99.90;;;;;;20906534;28;20478;-67
2023/03/01 04:29:19;;;;;;;4.05;2.22;;;0.40;99.90;;;;;;20905558;28;20347;-66
2023/03/01 04:39:20;;;;;;;3.40;1.98;;;0.30;99.90;;;;;;20886864;28;20382;-59
2023/03/01 04:49:22;;;;;;;3.85;2.08;;;0.40;99.90;;;;;;20905407;28;20033;-66
2023/03/01 04:59:24;;;;;;;4.65;2.40;;;0.50;99.90;;;;;;20903759;28;20029;-66
2023/03/01 05:09:26;;;;;;;4.38;2.25;;;0.50;99.90;;;;;;20901860;28;20033;-66
2023/03/01 05:19:27;;;;;;;5.72;2.05;;;0.50;99.90;;;;;;20912838;28;20044;-59
2023/03/01 05:29:31;;;;;;;5.32;2.08;;;0.60;99.90;;;;;;20919144;28;20028;-66
2023/03/01 05:39:33;;;;;;;2.75;1.80;;;0.70;99.90;;;;;;20918268;28;20079;-59
2023/03/01 05:49:34;;;;;;;3.67;1.70;;;0.80;99.90;;;;;;20917800;28;20085;-67
2023/03/01 05:59:36;;;;;;;2.50;1.42;;;0.90;99.90;;;;;;20917016;28;20033;-66
2023/03/01 06:09:38;;;;;;;2.95;1.70;;;0.90;99.90;;;;;;20912036;28;20375;-66
2023/03/01 06:19:40;;;;;;;3.08;1.73;;;0.90;99.90;;;;;;20914182;28;20043;-59
2023/03/01 06:29:41;;;;;;;4.25;2.30;;;0.70;99.90;;;;;;20913968;28;20044;-66
2023/03/01 06:39:43;;;;;;;4.45;1.70;;;0.50;99.90;;;;;;20910886;28;20037;-66
2023/03/01 06:49:45;;;;;;;3.58;1.10;;;0.60;99.90;;;;;;20911898;28;20029;-59
2023/03/01 06:59:47;;;;;;;2.75;1.10;;;1.20;99.90;;;;;;20912327;28;20368;-66
2023/03/01 07:09:49;;;;;;;5.32;1.30;;;1.50;99.90;;;;;;20910318;28;20045;-67
2023/03/01 07:19:51;;;;;;;1.83;1.00;;;1.90;99.90;;;;;;20912139;28;20040;-66
2023/03/01 07:29:52;;;;;;;1.88;1.05;;;2.10;99.90;;;;;;20908013;28;20025;-58
2023/03/01 07:39:54;;;;;;;1.30;0.77;;;2.30;99.60;;;;;;20906064;28;20032;-66
2023/03/01 07:49:56;;;;;;;2.38;0.75;;;2.70;98.60;;;;;;20903766;28;20032;-56
2023/03/01 07:59:57;;;;;;;1.60;0.80;;;2.90;98.30;;;;;;20906247;28;20037;-66
2023/03/01 08:09:59;;;;;;;1.70;0.90;;;2.90;97.90;;;;;;20908719;28;20057;-57
2023/03/01 08:20:00;;;;;;;1.52;0.50;;;2.60;98.70;;;;;;20906184;28;20041;-56
2023/03/01 08:30:02;;;;;;;1.70;0.47;;;2.80;98.70;;;;;;20888722;28;20033;-53
2023/03/01 08:40:07;;;;;;;2.75;0.65;;;3.30;97.40;;;;;;20903487;28;20083;-57
2023/03/01 08:50:09;;;;;;;2.15;0.80;;;3.30;98.10;;;;;;20905468;28;20044;-57
2023/03/01 09:00:11;;;;;;;2.17;0.60;;;3.40;97.40;;;;;;20905130;28;20105;-65
2023/03/01 09:10:13;;;;;;;1.20;0.57;;;3.70;97.40;;;;;;20903382;28;20045;-57
2023/03/01 09:20:14;;;;;;;1.20;0.38;;;4.00;96.90;;;;;;20902054;28;20037;-58
2023/03/01 09:30:16;;;;;;;0.85;0.45;;;4.20;97.70;;;;;;20902550;28;20059;-57
2023/03/01 09:40:22;;;;;;;1.02;0.43;;;4.30;97.40;;;;;;20902496;28;20036;-66
2023/03/01 09:50:28;;;;;;;2.15;1.08;;;4.80;95.70;;;;;;20902212;28;20432;-65
2023/03/01 10:00:41;;;;;;;0.88;0.40;;;4.70;94.80;;;;;;20901660;28;20095;-57
2023/03/01 10:10:48;;;;;;;1.48;0.50;;;4.60;95.30;;;;;;20916094;28;20045;-65
2023/03/01 10:21:14;;;;;;;2.53;0.50;;;4.60;94.60;;;;;;20914030;28;20041;-65
2023/03/01 10:31:21;;;;;;;1.67;0.70;;;4.60;94.30;;;;;;20913492;28;20539;-57
2023/03/01 10:41:26;;;;;;;0.40;0.30;;;4.90;93.70;;;;;;20913823;28;20063;-65
2023/03/01 10:51:27;;;;;;;1.33;0.50;;;5.10;93.40;;;;;;20911773;28;20168;-57
2023/03/01 11:01:34;;;;;;;2.58;0.40;;;5.40;92.70;;;;;;20912437;28;20032;-56
2023/03/01 11:11:36;;;;;;;1.02;0.40;;;5.50;92.00;;;;;;20910671;28;20049;-59
2023/03/01 11:21:44;;;;;;;3.00;0.35;;;5.20;92.60;;;;;;20910892;28;20029;-63
2023/03/01 11:31:47;;;;;;;2.70;0.60;;;5.40;92.60;;;;;;20910124;28;20434;-57
2023/03/01 11:42:00;;;;;;;1.00;0.30;;;5.80;92.60;;;;;;20907969;28;20045;-65
2023/03/01 11:52:20;;;;;;;0.60;0.35;;;6.20;91.80;;;;;;20908240;28;20527;-58
2023/03/01 12:02:57;;;;;;;6.03;2.30;;;5.60;91.10;;;;;;20909016;28;20377;-57
2023/03/01 12:13:42;;;;;;;3.33;1.35;;;5.00;94.20;;;;;;20901187;28;20091;-67
2023/03/01 12:24:03;;;;;;;7.88;3.70;;;4.10;96.00;;;;;;20904062;28;20075;-56
2023/03/01 12:34:19;;;;;;;13.43;6.00;;;4.10;97.00;;;;;;20905808;28;20029;-57
2023/03/01 12:44:30;;;;;;;10.57;5.93;;;4.10;99.90;;;;;;20905581;28;20041;-56
2023/03/01 12:54:35;;;;;;;9.10;4.90;;;4.40;99.90;;;;;;20902910;28;20029;-60
2023/03/01 13:05:06;;;;;;;10.00;6.10;;;4.80;99.70;;;;;;20902965;28;20029;-64
2023/03/01 13:15:26;;;;;;;9.23;5.57;;;5.30;99.30;;;;;;20902000;28;20051;-57
2023/03/01 13:25:27;;;;;;;3.53;2.00;;;5.30;99.90;;;;;;20902850;28;20059;-64
2023/03/01 13:35:56;;;;;;;4.10;1.67;;;4.90;98.20;;;;;;20903823;28;20090;-66
2023/03/01 13:45:59;;;;;;;6.78;2.10;;;4.60;99.20;;;;;;20915195;28;20387;-58
2023/03/01 13:56:11;;;;;;;5.22;2.33;;;4.40;99.90;;;;;;20917845;28;20028;-57
2023/03/01 14:06:17;;;;;;;5.85;2.08;;;4.30;99.90;;;;;;20916876;28;20035;-66
2023/03/01 14:16:37;;;;;;;10.80;3.10;;;4.00;99.90;;;;;;20916801;28;20453;-59
2023/03/01 14:26:40;;;;;;;9.18;2.78;;;4.00;99.90;;;;;;20915225;28;20471;-67
2023/03/01 14:36:42;;;;;;;7.97;2.45;;;3.80;99.90;;;;;;20914285;28;20025;-66
2023/03/01 14:46:44;;;;;;;6.95;2.80;;;3.60;99.90;;;;;;20913323;28;20029;-58
2023/03/01 14:56:47;;;;;;;10.00;2.63;;;3.80;99.90;;;;;;20912975;28;20037;-66
2023/03/01 15:06:54;;;;;;;7.32;2.65;;;4.00;99.90;;;;;;20912308;28;20037;-59
2023/03/01 15:16:56;;;;;;;8.98;2.47;;;3.90;99.90;;;;;;20911389;28;20445;-66
2023/03/01 15:27:05;;;;;;;7.70;2.78;;;4.00;99.90;;;;;;20910931;28;20056;-58
2023/03/01 15:37:53;;;;;;;11.02;2.90;;;3.90;99.90;;;;;;20909832;28;20370;-59
2023/03/01 15:48:03;;;;;;;9.23;3.45;;;3.70;99.90;;;;;;20907973;28;20095;-66
2023/03/01 15:58:13;;;;;;;14.33;3.03;;;3.60;99.90;;;;;;20906104;28;20067;-66
2023/03/01 16:08:15;;;;;;;12.20;3.35;;;3.40;99.90;;;;;;20905706;28;20421;-67
2023/03/01 16:18:16;;;;;;;10.35;4.35;;;3.30;99.90;;;;;;20906487;28;20462;-57
2023/03/01 16:28:18;;;;;;;13.73;8.32;;;3.20;99.90;;;;;;20905371;28;20029;-57
2023/03/01 16:38:20;;;;;;;9.60;3.50;;;2.50;99.90;;;;;;20884931;28;20029;-67
2023/03/01 16:48:22;;;;;;;7.65;3.00;;;2.20;99.90;;;;;;20903326;28;20092;-59
2023/03/01 16:58:24;;;;;;;16.92;7.88;;;2.40;99.90;;;;;;20903911;28;20037;-59
2023/03/01 17:08:26;;;;;;;17.70;9.02;;;2.40;99.90;;;;;;20902988;28;20446;-57
2023/03/01 17:18:27;;;;;;;25.65;12.80;;;1.80;99.90;;;;;;20920064;28;20041;-57
2023/03/01 17:28:31;;;;;;;28.02;15.63;;;1.30;99.90;;;;;;20918487;28;20067;-56
2023/03/01 17:38:33;;;;;;;31.45;15.48;;;0.70;99.90;;;;;;20960581;28;20040;-57
2023/03/01 17:48:35;;;;;;;14.73;7.60;;;0.50;99.90;;;;;;20918112;28;20032;-56
2023/03/01 17:58:38;;;;;;;18.75;10.63;;;0.70;99.90;;;;;;20917180;28;20084;-57
2023/03/01 18:08:41;;;;;;;37.13;19.10;;;1.00;99.90;;;;;;20916316;28;20041;-64
2023/03/01 18:18:46;;;;;;;37.33;19.20;;;0.80;99.90;;;;;;20899109;28;20041;-58
2023/03/01 18:28:50;;;;;;;39.72;19.38;;;0.50;99.90;;;;;;20913907;28;20032;-64
2023/03/01 18:38:54;;;;;;;35.17;17.60;;;0.30;99.90;;;;;;20915071;28;20437;-61
2023/03/01 18:48:56;;;;;;;11.50;6.25;;;0.30;99.90;;;;;;20913485;28;20041;-67
2023/03/01 18:58:59;;;;;;;5.40;3.20;;;1.00;99.90;;;;;;20912667;28;20040;-61
2023/03/01 19:09:01;;;;;;;2.97;1.90;;;1.10;99.90;;;;;;20911680;28;20103;-59
2023/03/01 19:19:05;;;;;;;2.95;1.92;;;1.50;99.90;;;;;;20911324;28;20036;-60
2023/03/01 19:29:09;;;;;;;1.23;0.80;;;1.50;99.90;;;;;;20910128;28;20490;-58
2023/03/01 19:39:12;;;;;;;2.22;1.40;;;1.60;99.90;;;;;;20907276;28;20086;-57
2023/03/01 19:49:14;;;;;;;2.88;1.35;;;1.70;99.90;;;;;;20910116;28;20094;-58
2023/03/01 19:59:18;;;;;;;1.98;1.17;;;1.60;99.90;;;;;;20889952;28;20037;-57
2023/03/01 20:09:19;;;;;;;1.77;1.20;;;1.50;99.90;;;;;;20907133;28;20056;-57
2023/03/01 20:19:21;;;;;;;1.75;1.10;;;1.40;99.90;;;;;;20905413;28;20036;-56
2023/03/01 20:29:23;;;;;;;1.65;0.93;;;1.40;99.90;;;;;;20905692;28;20469;-64
2023/03/01 20:39:24;;;;;;;1.48;0.90;;;1.40;99.90;;;;;;20903923;28;20060;-55
2023/03/01 20:49:26;;;;;;;1.20;0.70;;;1.40;99.90;;;;;;20904418;28;20186;-55
2023/03/01 20:59:28;;;;;;;0.90;0.43;;;1.40;99.90;;;;;;20902610;28;20078;-55
2023/03/01 21:09:29;;;;;;;2.03;0.80;;;1.40;99.90;;;;;;20903373;28;20483;-55
2023/03/01 21:19:36;;;;;;;1.10;0.60;;;1.50;99.90;;;;;;20903183;28;20060;-64
2023/03/01 21:29:43;;;;;;;1.10;0.45;;;1.50;99.90;;;;;;20901590;28;20029;-56
2023/03/01 21:39:45;;;;;;;0.80;0.45;;;1.50;99.90;;;;;;20902659;28;20561;-56
2023/03/01 21:49:46;;;;;;;0.65;0.35;;;1.40;99.90;;;;;;20902255;28;20028;-57
2023/03/01 21:59:48;;;;;;;0.50;0.30;;;1.40;99.90;;;;;;20907174;28;20087;-56
2023/03/01 22:09:50;;;;;;;0.40;0.20;;;1.40;99.90;;;;;;20916807;28;20044;-54
2023/03/01 22:19:51;;;;;;;0.50;0.20;;;1.50;99.90;;;;;;20915819;28;20099;-53
2023/03/01 22:29:53;;;;;;;0.50;0.10;;;1.50;99.90;;;;;;20915033;28;20029;-54
2023/03/01 22:39:56;;;;;;;0.13;0.00;;;1.50;99.90;;;;;;20915703;28;20040;-55
2023/03/01 22:49:57;;;;;;;0.10;0.05;;;1.40;99.90;;;;;;20914615;28;20575;-54
2023/03/01 22:59:59;;;;;;;0.10;0.10;;;1.50;99.90;;;;;;20912808;28;20453;-56
2023/03/01 23:10:01;;;;;;;0.40;0.10;;;1.60;99.90;;;;;;20912314;28;20049;-50
2023/03/01 23:20:09;;;;;;;0.10;0.10;;;1.60;99.90;;;;;;20911420;28;20043;-55
2023/03/01 23:30:11;;;;;;;0.28;0.10;;;1.50;99.90;;;;;;20910366;28;20037;-65
2023/03/01 23:40:13;;;;;;;0.03;0.00;;;1.50;99.90;;;;;;20909736;28;20053;-54
2023/03/01 23:50:14;;;;;;;0.10;0.00;;;1.50;99.90;;;;;;20909040;28;20536;-51
